Time;durP1;ratioP1;P1;durP2;ratioP2;P2;SDS_P1;SDS_P2;PMS_P1;PMS_P2;Temp;Humidity;BMP_temperature;BMP_pressure;BME280_temperature;BME280_humidity;BME280_pressure;Samples;Min_cycle;Max_cycle;Signal;HPM_P1;HPM_P2
2022/12/18 00:04:03;;;;;;;16.48;10.85;;;;;;;-8.28;100.00;99748.50;15285988;19;20655;-50
2022/12/18 00:09:27;;;;;;;15.23;10.82;;;;;;;-8.30;100.00;99760.75;15281933;19;20037;-53
2022/12/18 00:14:59;;;;;;;16.13;11.07;;;;;;;-8.34;100.00;99757.25;15281879;19;20014;-54
2022/12/18 00:20:25;;;;;;;16.08;10.90;;;;;;;-8.38;100.00;99753.81;15276793;19;20010;-52
2022/12/18 00:25:50;;;;;;;15.82;10.25;;;;;;;-8.41;100.00;99760.81;15276777;19;20021;-49
2022/12/18 00:31:19;;;;;;;17.40;9.98;;;;;;;-8.43;100.00;99757.31;15280904;19;20014;-50
2022/12/18 00:36:45;;;;;;;18.07;10.97;;;;;;;-8.45;100.00;99761.69;15282774;19;20038;-50
2022/12/18 00:47:52;;;;;;;13.35;8.88;;;;;;;-8.55;100.00;99768.78;15282308;19;20018;-53
2022/12/18 00:53:17;;;;;;;15.02;9.75;;;;;;;-8.59;100.00;99761.81;15275940;19;20357;-50
2022/12/18 00:58:42;;;;;;;13.87;10.03;;;;;;;-8.62;100.00;99769.66;15273123;19;20085;-50
2022/12/18 01:04:09;;;;;;;16.05;10.40;;;;;;;-8.69;100.00;99767.09;15278987;19;20014;-53
2022/12/18 01:09:34;;;;;;;14.63;9.97;;;;;;;-8.72;100.00;99767.09;15279276;19;20082;-53
2022/12/18 01:15:00;;;;;;;14.20;9.45;;;;;;;-8.75;100.00;99768.88;15277828;19;20077;-49
2022/12/18 01:20:27;;;;;;;13.57;9.93;;;;;;;-8.78;100.00;99780.19;15285243;19;20086;-51
2022/12/18 01:25:58;;;;;;;16.33;10.03;;;;;;;-8.80;100.00;99792.41;15292572;19;20070;-50
2022/12/18 01:31:23;;;;;;;;;;;;;;;-8.80;100.00;99809.78;15287445;19;20098;-52
2022/12/18 01:36:51;;;;;;;13.60;9.43;;;;;;;-8.83;100.00;99815.91;15290995;19;19926;-56
2022/12/18 01:42:18;;;;;;;13.63;9.50;;;;;;;-8.87;100.00;99819.38;15291662;19;20019;-51
2022/12/18 01:47:47;;;;;;;13.70;9.17;;;;;;;-8.90;100.00;99814.19;15295960;19;20019;-54
2022/12/18 01:53:18;;;;;;;14.02;9.43;;;;;;;-8.94;100.00;99810.75;15292206;19;20029;-51
2022/12/18 01:58:51;;;;;;;13.23;9.17;;;;;;;-8.96;100.00;99811.59;15287323;19;20024;-51
2022/12/18 02:04:23;;;;;;;13.37;8.40;;;;;;;-9.02;100.00;99797.69;15286253;19;20374;-52
2022/12/18 02:09:56;;;;;;;13.07;8.50;;;;;;;-9.05;100.00;99800.31;15290455;19;20356;-54
2022/12/18 02:15:27;;;;;;;11.83;8.77;;;;;;;-9.07;100.00;99802.06;15287861;19;20525;-49
2022/12/18 02:20:58;;;;;;;12.23;8.93;;;;;;;-9.08;100.00;99807.28;15287915;19;20019;-50
2022/12/18 02:26:30;;;;;;;14.50;9.05;;;;;;;-9.11;100.00;99813.38;15292107;19;20024;-49
2022/12/18 02:32:01;;;;;;;12.27;8.83;;;;;;;-9.13;100.00;99804.69;15284419;19;20022;-55
2022/12/18 02:37:28;;;;;;;14.03;9.03;;;;;;;-9.16;100.00;99807.31;15290678;19;20026;-49
2022/12/18 02:42:56;;;;;;;13.77;9.23;;;;;;;-9.18;100.00;99809.03;15286981;19;20031;-51
2022/12/18 02:48:24;;;;;;;14.10;9.37;;;;;;;-9.20;100.00;99805.56;15288065;19;20021;-49
2022/12/18 02:53:55;;;;;;;13.00;8.70;;;;;;;-9.26;100.00;99801.22;15285429;19;20019;-50
2022/12/18 02:59:29;;;;;;;12.27;8.50;;;;;;;-9.30;100.00;99802.97;15285882;19;20109;-51
2022/12/18 03:04:59;;;;;;;15.70;9.13;;;;;;;-9.34;100.00;99811.66;15276658;19;20043;-50
2022/12/18 03:10:30;;;;;;;11.97;8.17;;;;;;;-9.41;100.00;99802.13;15284883;19;20042;-50
2022/12/18 03:16:01;;;;;;;14.30;8.65;;;;;;;-9.45;100.00;99796.03;15285619;19;20265;-50
2022/12/18 03:21:31;;;;;;;11.73;8.40;;;;;;;-9.51;100.00;99792.56;15288424;19;20479;-53
2022/12/18 03:27:04;;;;;;;13.80;8.57;;;;;;;-9.53;100.00;99803.03;15286834;19;20707;-55
2022/12/18 03:32:35;;;;;;;12.80;9.10;;;;;;;-9.53;100.00;99807.34;15284592;19;20029;-53
2022/12/18 03:38:01;;;;;;;12.07;9.20;;;;;;;-9.54;100.00;99813.44;15280085;19;20022;-50
2022/12/18 03:43:40;;;;;;;14.33;9.63;;;;;;;-9.57;100.00;99811.72;15282708;19;20155;-49
2022/12/18 03:49:17;;;;;;;13.87;9.17;;;;;;;-9.59;100.00;99818.66;15282678;19;20094;-50
2022/12/18 03:54:44;;;;;;;15.27;9.30;;;;;;;-9.64;100.00;99826.50;15282550;19;20010;-49
2022/12/18 04:00:13;;;;;;;14.93;8.97;;;;;;;-9.63;100.00;99827.34;15281062;19;20082;-49
2022/12/18 04:05:52;;;;;;;13.47;9.90;;;;;;;-9.66;100.00;99830.84;15280425;19;20351;-49
2022/12/18 04:11:18;;;;;;;14.27;9.30;;;;;;;-9.69;100.00;99822.16;15278280;19;20081;-49
2022/12/18 04:16:43;;;;;;;14.17;9.60;;;;;;;-9.75;100.00;99817.81;15279891;19;20022;-51
2022/12/18 04:22:19;;;;;;;14.35;9.73;;;;;;;-9.76;100.00;99818.66;15282695;19;20030;-50
2022/12/18 04:27:43;;;;;;;15.50;9.80;;;;;;;-9.78;100.00;99812.56;15284623;19;20022;-51
2022/12/18 04:33:09;;;;;;;13.87;9.30;;;;;;;-9.83;100.00;99812.56;15282747;19;20019;-49
2022/12/18 04:38:36;;;;;;;15.60;9.83;;;;;;;-9.84;100.00;99808.22;15278803;19;20230;-49
2022/12/18 04:44:02;;;;;;;13.60;9.97;;;;;;;-9.86;100.00;99806.50;15276750;19;20027;-53
2022/12/18 04:49:27;;;;;;;13.97;9.07;;;;;;;-9.88;100.00;99805.63;15284750;19;20070;-50
2022/12/18 04:54:54;;;;;;;13.67;9.57;;;;;;;-9.89;100.00;99815.19;15289726;19;20022;-49
2022/12/18 05:00:19;;;;;;;15.90;9.67;;;;;;;-9.88;100.00;99810.84;15292329;19;20098;-49
2022/12/18 05:05:44;;;;;;;13.57;8.43;;;;;;;-9.91;100.00;99815.19;15298838;19;20078;-50
2022/12/18 05:11:15;;;;;;;13.60;9.03;;;;;;;-9.93;100.00;99822.13;15288173;19;20750;-50
2022/12/18 05:16:40;;;;;;;13.93;9.40;;;;;;;-9.97;100.00;99825.63;15284912;19;20037;-53
2022/12/18 05:22:05;;;;;;;14.93;9.33;;;;;;;-9.99;100.00;99831.66;15298200;19;20022;-51
2022/12/18 05:27:32;;;;;;;15.47;8.90;;;;;;;-10.03;100.00;99837.78;15295913;19;20035;-49
2022/12/18 05:32:57;;;;;;;15.63;9.13;;;;;;;-10.08;100.00;99846.44;15295594;19;20014;-50
2022/12/18 05:38:21;;;;;;;13.90;8.77;;;;;;;-10.13;100.00;99853.41;15294239;19;20024;-49
2022/12/18 05:43:48;;;;;;;10.80;8.57;;;;;;;-10.18;100.00;99841.22;15290441;19;20028;-52
2022/12/18 05:49:13;;;;;;;11.57;8.43;;;;;;;-10.26;100.00;99831.63;15287205;19;20017;-51
2022/12/18 05:54:38;;;;;;;12.83;8.90;;;;;;;-10.34;100.00;99838.56;15292867;19;20023;-48
2022/12/18 06:00:06;;;;;;;12.33;8.60;;;;;;;-10.37;100.00;99842.03;15291279;19;20035;-49
2022/12/18 06:05:31;;;;;;;15.53;9.13;;;;;;;-10.42;100.00;99850.75;15294020;19;20023;-50
2022/12/18 06:11:00;;;;;;;12.07;8.53;;;;;;;-10.44;100.00;99857.69;15289293;19;20138;-52
2022/12/18 06:16:28;;;;;;;13.20;9.03;;;;;;;-10.47;100.00;99858.56;15285007;19;20026;-49
2022/12/18 06:21:53;;;;;;;13.07;9.07;;;;;;;-10.50;100.00;99853.31;15285725;19;20030;-48
2022/12/18 06:27:18;;;;;;;15.50;9.43;;;;;;;-10.54;100.00;99862.88;15292318;19;20098;-51
2022/12/18 06:32:45;;;;;;;14.20;8.63;;;;;;;-10.54;100.00;99867.19;15293029;19;20028;-49
2022/12/18 06:38:13;;;;;;;10.57;7.53;;;;;;;-10.55;100.00;99866.34;15291369;19;20029;-50
2022/12/18 06:43:38;;;;;;;12.30;8.53;;;;;;;-10.52;100.00;99877.63;15292067;19;20018;-53
2022/12/18 06:49:06;;;;;;;13.93;8.80;;;;;;;-10.56;100.00;99875.00;15285037;19;20080;-52
2022/12/18 06:54:31;;;;;;;10.97;7.77;;;;;;;-10.60;100.00;99872.38;15281654;19;20022;-48
2022/12/18 06:59:56;;;;;;;14.77;8.37;;;;;;;-10.65;100.00;99859.34;15288500;19;20018;-49
2022/12/18 07:05:23;;;;;;;11.10;7.47;;;;;;;-10.69;100.00;99858.44;15289975;19;20098;-49
2022/12/18 07:10:48;;;;;;;12.37;8.20;;;;;;;-10.71;100.00;99869.72;15286739;19;20460;-48
2022/12/18 07:16:16;;;;;;;13.47;7.67;;;;;;;-10.74;100.00;99869.69;15284061;19;20022;-47
2022/12/18 07:21:45;;;;;;;10.53;7.63;;;;;;;-10.75;100.00;99870.56;15284596;19;20018;-45
2022/12/18 07:27:10;;;;;;;12.23;7.90;;;;;;;-10.77;100.00;99880.13;15288699;19;20344;-46
2022/12/18 07:32:34;;;;;;;10.07;7.10;;;;;;;-10.78;100.00;99867.97;15287345;19;20090;-46
2022/12/18 07:38:02;;;;;;;12.40;7.57;;;;;;;-10.77;100.00;99864.50;15287897;19;20360;-47
2022/12/18 07:43:27;;;;;;;11.43;7.43;;;;;;;-10.75;100.00;99867.94;15287201;19;20031;-46
2022/12/18 07:48:52;;;;;;;10.80;7.93;;;;;;;-10.69;100.00;99883.63;15284063;19;20078;-51
2022/12/18 07:54:19;;;;;;;10.77;7.67;;;;;;;-10.60;100.00;99901.88;15275336;19;20086;-50
2022/12/18 07:59:45;;;;;;;11.87;7.83;;;;;;;-10.54;100.00;99909.75;15281650;19;20032;-46
2022/12/18 08:05:10;;;;;;;13.30;7.67;;;;;;;-10.49;100.00;99906.28;15284577;19;20022;-49
2022/12/18 08:10:38;;;;;;;11.20;8.20;;;;;;;-10.46;100.00;99916.72;15282534;19;20897;-49
2022/12/18 08:16:06;;;;;;;10.60;7.47;;;;;;;-10.38;100.00;99928.94;15279548;19;20029;-46
2022/12/18 08:21:33;;;;;;;10.63;7.20;;;;;;;-10.32;100.00;99928.03;15284683;19;20472;-49
2022/12/18 08:27:00;;;;;;;10.60;6.63;;;;;;;-10.25;100.00;99932.41;15263613;19;20488;-47
2022/12/18 08:32:46;;;;;;;10.73;6.57;;;;;;;-10.17;100.00;99928.97;15280776;19;20018;-47
2022/12/18 08:38:11;;;;;;;10.73;6.80;;;;;;;-10.06;100.00;99924.69;15280476;19;20357;-50
2022/12/18 08:49:26;;;;;;;9.17;5.83;;;;;;;-9.84;100.00;99932.56;15281425;19;20042;-50
2022/12/18 08:54:52;;;;;;;9.30;6.37;;;;;;;-9.71;100.00;99920.41;15280309;19;20190;-51
2022/12/18 09:00:22;;;;;;;8.57;6.20;;;;;;;-9.60;100.00;99927.38;15266350;19;20089;-49
2022/12/18 09:05:48;;;;;;;10.10;6.27;;;;;;;-9.47;100.00;99916.97;15278970;19;20750;-53
2022/12/18 09:11:19;;;;;;;9.77;6.30;;;;;;;-9.36;100.00;99904.78;15273903;19;20029;-48
2022/12/18 09:16:47;;;;;;;9.63;6.07;;;;;;;-9.21;100.00;99910.84;15279515;19;20037;-49
2022/12/18 09:22:12;;;;;;;9.27;5.97;;;;;;;-9.09;100.00;99903.00;15282267;19;20023;-47
2022/12/18 09:27:37;;;;;;;7.17;5.00;;;;;;;-8.90;100.00;99914.31;15281355;19;20368;-51
2022/12/18 09:33:04;;;;;;;8.97;5.73;;;;;;;-8.75;100.00;99908.16;15272544;19;20424;-50
2022/12/18 09:38:29;;;;;;;7.83;5.47;;;;;;;-8.56;100.00;99913.38;15275991;19;20019;-52
2022/12/18 09:43:58;;;;;;;9.80;6.40;;;;;;;-8.36;100.00;99893.22;15291770;19;20074;-50
2022/12/18 09:49:29;;;;;;;8.80;6.25;;;;;;;-8.15;100.00;99877.44;15286645;19;20824;-52
2022/12/18 09:54:58;;;;;;;9.00;5.20;;;;;;;-7.94;100.00;99858.16;15293285;19;20110;-52
2022/12/18 10:00:25;;;;;;;7.47;5.45;;;;;;;-7.76;100.00;99865.00;15228295;19;20018;-51
2022/12/18 10:06:02;;;;;;;7.68;5.72;;;;;;;-7.53;100.00;99856.97;15283719;19;20014;-49
2022/12/18 10:11:46;;;;;;;7.32;5.50;;;;;;;-7.32;100.00;99860.28;15292162;19;20523;-52
2022/12/18 10:17:20;;;;;;;7.57;5.20;;;;;;;-7.14;100.00;99870.63;15285843;19;20368;-52
2022/12/18 10:22:59;;;;;;;6.65;5.28;;;;;;;-6.98;100.00;99854.72;15288863;19;20034;-52
2022/12/18 10:28:27;;;;;;;7.32;4.93;;;;;;;-6.81;100.00;99850.19;15288800;19;20027;-49
2022/12/18 10:33:51;;;;;;;7.35;5.45;;;;;;;-6.62;100.00;99836.00;15283368;19;20022;-49
2022/12/18 10:39:30;;;;;;;6.93;5.00;;;;;;;-6.46;100.00;99820.94;15281962;19;20098;-50
2022/12/18 10:45:04;;;;;;;5.13;4.20;;;;;;;-6.29;100.00;99816.34;15290003;19;20033;-51
2022/12/18 10:50:39;;;;;;;5.82;4.20;;;;;;;-6.14;100.00;99822.25;15279470;19;20006;-51
2022/12/18 10:56:29;;;;;;;5.63;4.65;;;;;;;-5.97;100.00;99819.34;15284789;19;20019;-51
2022/12/18 11:01:57;;;;;;;6.10;4.20;;;;;;;-5.80;100.00;99817.38;15287995;19;20025;-50
2022/12/18 11:07:22;;;;;;;5.00;3.85;;;;;;;-5.60;100.00;99830.19;15278699;19;20029;-53
2022/12/18 11:12:49;;;;;;;5.32;3.70;;;;;;;-5.44;100.00;99833.41;15287152;19;20411;-50
2022/12/18 11:18:22;;;;;;;5.50;3.97;;;;;;;-5.28;100.00;99841.91;15283573;19;20535;-50
2022/12/18 11:23:56;;;;;;;5.60;4.10;;;;;;;-5.13;100.00;99837.28;15285559;19;20023;-49
2022/12/18 11:29:29;;;;;;;6.63;4.70;;;;;;;-4.97;100.00;99820.31;15283528;19;20019;-50
2022/12/18 11:35:08;;;;;;;6.03;4.50;;;;;;;-4.79;100.00;99826.13;15284217;19;20011;-48
2022/12/18 11:40:39;;;;;;;6.95;4.28;;;;;;;-4.63;100.00;99816.16;15269965;19;20851;-51
2022/12/18 11:46:12;;;;;;;6.82;4.43;;;;;;;-4.48;100.00;99822.88;15280749;19;20098;-49
2022/12/18 11:51:54;;;;;;;6.25;4.38;;;;;;;-4.32;100.00;99817.31;15280901;19;20024;-50
2022/12/18 11:57:34;;;;;;;6.60;4.53;;;;;;;-4.22;100.00;99803.88;15282454;19;20085;-49
2022/12/18 12:03:27;;;;;;;4.88;3.88;;;;;;;-4.11;100.00;99790.50;15281065;19;20022;-48
2022/12/18 12:09:07;;;;;;;4.63;3.97;;;;;;;-4.00;100.00;99765.69;15281309;19;20030;-49
2022/12/18 12:14:48;;;;;;;6.35;4.50;;;;;;;-3.91;100.00;99754.94;15273719;19;20022;-51
2022/12/18 12:20:23;;;;;;;6.88;5.00;;;;;;;-3.80;100.00;99752.91;15274309;19;20364;-49
2022/12/18 12:26:00;;;;;;;7.03;5.10;;;;;;;-3.65;100.00;99748.16;15275150;19;21071;-52
2022/12/18 12:31:46;;;;;;;5.25;4.38;;;;;;;-3.50;100.00;99747.78;15282705;19;20745;-53
2022/12/18 12:37:25;;;;;;;5.40;4.22;;;;;;;-3.36;100.00;99741.28;15278847;19;20039;-50
2022/12/18 12:48:46;;;;;;;4.78;4.10;;;;;;;-3.21;100.00;99746.13;15272737;19;20452;-53
2022/12/18 12:54:23;;;;;;;6.40;4.45;;;;;;;-3.18;100.00;99746.06;15278861;19;20014;-54
2022/12/18 12:59:59;;;;;;;5.88;4.20;;;;;;;-3.08;100.00;99732.63;15282041;19;20023;-54
2022/12/18 13:05:32;;;;;;;6.25;4.53;;;;;;;-2.95;100.00;99734.00;15282080;19;20437;-55
2022/12/18 13:16:38;;;;;;;5.32;4.18;;;;;;;-2.60;100.00;99732.13;15274611;19;20025;-54
2022/12/18 13:22:03;;;;;;;5.72;3.60;;;;;;;-2.60;100.00;99721.56;15294699;19;20030;-51
2022/12/18 13:28:03;;;;;;;3.72;3.00;;;;;;;-2.61;100.00;99726.91;15295366;19;20831;-49
2022/12/18 13:33:51;;;;;;;4.97;3.10;;;;;;;-2.62;100.00;99718.09;15294035;19;20116;-52
2022/12/18 13:39:42;;;;;;;2.92;2.65;;;;;;;-2.60;100.00;99694.31;15285690;19;20018;-50
2022/12/18 13:45:39;;;;;;;3.25;2.80;;;;;;;-2.56;100.00;99714.41;15293424;19;20043;-49
2022/12/18 13:51:08;;;;;;;3.28;2.78;;;;;;;-2.50;100.00;99690.50;15281612;19;20085;-52
2022/12/18 13:56:35;;;;;;;3.17;2.65;;;;;;;-2.53;100.00;99675.59;15292892;19;20534;-54
2022/12/18 14:02:05;;;;;;;4.93;3.03;;;;;;;-2.56;100.00;99678.34;15291875;19;20093;-50
2022/12/18 14:07:32;;;;;;;4.93;3.55;;;;;;;-2.60;100.00;99684.63;15292817;19;20476;-51
2022/12/18 14:13:14;;;;;;;4.22;3.60;;;;;;;-2.64;100.00;99683.84;15292740;19;20015;-50
2022/12/18 14:18:48;;;;;;;4.07;3.42;;;;;;;-2.71;100.00;99698.16;15283715;19;20021;-55
2022/12/18 14:24:30;;;;;;;5.38;4.10;;;;;;;-2.75;100.00;99711.44;15282838;19;20021;-51
2022/12/18 14:29:55;;;;;;;3.95;3.10;;;;;;;-2.83;100.00;99699.38;15289937;19;20078;-52
2022/12/18 14:35:24;;;;;;;4.18;3.20;;;;;;;-2.89;100.00;99694.28;15288756;19;20025;-49
2022/12/18 14:40:49;;;;;;;7.28;6.57;;;;;;;-2.96;100.00;99698.00;15286341;19;20447;-54
2022/12/18 14:46:15;;;;;;;4.65;3.55;;;;;;;-3.04;100.00;99698.22;15290311;19;20431;-52
2022/12/18 14:51:57;;;;;;;4.35;3.33;;;;;;;-3.12;100.00;99697.56;15281301;19;20100;-51
2022/12/18 14:57:26;;;;;;;4.85;3.10;;;;;;;-3.19;100.00;99698.66;15280718;19;20024;-51
2022/12/18 15:02:52;;;;;;;5.13;2.80;;;;;;;-3.24;100.00;99693.53;15288326;19;20017;-53
2022/12/18 15:08:32;;;;;;;4.35;3.30;;;;;;;-3.30;100.00;99696.31;15289630;19;20089;-53
2022/12/18 15:13:57;;;;;;;3.95;3.50;;;;;;;-3.37;100.00;99697.41;15286424;19;20031;-53
2022/12/18 15:19:23;;;;;;;5.28;3.42;;;;;;;-3.44;100.00;99701.97;15283428;19;20690;-51
2022/12/18 15:24:51;;;;;;;5.25;3.80;;;;;;;-3.51;100.00;99690.72;15282077;19;20550;-53
2022/12/18 15:30:21;;;;;;;4.75;3.60;;;;;;;-3.59;100.00;99697.97;15281865;19;20011;-52
2022/12/18 15:35:46;;;;;;;5.47;4.07;;;;;;;-3.65;100.00;99698.13;15283544;19;20090;-52
2022/12/18 15:41:17;;;;;;;6.15;3.65;;;;;;;-3.69;100.00;99701.72;15280854;19;20028;-52
2022/12/18 15:46:42;;;;;;;5.20;3.70;;;;;;;-3.73;100.00;99704.47;15284684;19;20401;-54
2022/12/18 15:52:07;;;;;;;4.88;3.63;;;;;;;-3.74;100.00;99705.38;15281857;19;20077;-51
2022/12/18 15:57:35;;;;;;;5.50;3.60;;;;;;;-3.77;100.00;99691.41;15273276;19;20014;-56
2022/12/18 16:03:00;;;;;;;4.05;3.28;;;;;;;-3.79;100.00;99691.44;15284599;19;20365;-52
2022/12/18 16:08:24;;;;;;;4.55;3.60;;;;;;;-3.82;100.00;99672.22;15285898;19;20492;-51
2022/12/18 16:13:51;;;;;;;6.05;4.32;;;;;;;-3.84;100.00;99668.75;15284422;19;20034;-51
2022/12/18 16:19:16;;;;;;;6.78;5.68;;;;;;;-3.88;100.00;99671.47;15282350;19;20169;-52
2022/12/18 16:24:42;;;;;;;7.25;4.30;;;;;;;-3.90;100.00;99656.63;15283278;19;20035;-54
2022/12/18 16:30:10;;;;;;;6.18;4.20;;;;;;;-3.92;100.00;99661.94;15268907;19;20018;-54
2022/12/18 16:35:36;;;;;;;5.78;4.30;;;;;;;-3.94;100.00;99657.63;15284812;19;20090;-54
2022/12/18 16:46:42;;;;;;;6.35;5.38;;;;;;;-3.96;100.00;99633.94;15284369;19;20018;-52
2022/12/18 16:52:10;;;;;;;5.45;4.13;;;;;;;-3.94;100.00;99639.19;15305287;19;20019;-54
2022/12/18 16:57:36;;;;;;;5.05;3.92;;;;;;;-3.93;100.00;99633.00;15312577;19;20028;-50
2022/12/18 17:03:03;;;;;;;4.40;3.85;;;;;;;-3.92;100.00;99637.34;15297887;19;20018;-54
2022/12/18 17:08:29;;;;;;;5.50;4.00;;;;;;;-3.88;100.00;99639.88;15309049;19;20088;-53
2022/12/18 17:13:53;;;;;;;5.53;4.30;;;;;;;-3.83;100.00;99637.13;15308878;19;20018;-51
2022/12/18 17:19:22;;;;;;;4.70;3.85;;;;;;;-3.81;100.00;99624.78;15308323;19;20406;-52
2022/12/18 17:24:47;;;;;;;5.35;4.00;;;;;;;-3.79;100.00;99612.44;15306396;19;20018;-53
2022/12/18 17:30:13;;;;;;;5.57;4.50;;;;;;;-3.79;100.00;99611.59;15302747;19;20045;-51
2022/12/18 17:35:40;;;;;;;6.57;4.28;;;;;;;-3.80;100.00;99594.91;15297557;19;20021;-53
2022/12/18 17:41:06;;;;;;;5.80;4.22;;;;;;;-3.80;100.00;99607.22;15303340;19;20439;-53
2022/12/18 17:46:32;;;;;;;6.10;4.50;;;;;;;-3.81;100.00;99598.44;15310191;19;20014;-52
2022/12/18 17:51:59;;;;;;;5.90;4.18;;;;;;;-3.82;100.00;99591.44;15308406;19;20031;-52
2022/12/18 17:57:24;;;;;;;5.53;4.47;;;;;;;-3.79;100.00;99582.63;15306789;19;20032;-51
2022/12/18 18:02:49;;;;;;;5.60;4.18;;;;;;;-3.77;100.00;99592.19;15297503;19;20025;-52
2022/12/18 18:08:16;;;;;;;5.53;4.60;;;;;;;-3.75;100.00;99598.28;15280726;19;20021;-52
2022/12/18 18:19:19;;;;;;;4.95;4.20;;;;;;;-3.74;100.00;99581.59;15291873;19;20025;-55
2022/12/18 18:24:46;;;;;;;5.78;3.95;;;;;;;-3.73;100.00;99585.94;15292197;19;20126;-50
2022/12/18 18:30:12;;;;;;;4.63;4.13;;;;;;;-3.73;100.00;99575.41;15287292;19;20106;-51
2022/12/18 18:35:43;;;;;;;5.68;4.35;;;;;;;-3.72;100.00;99568.38;15293470;19;20077;-50
2022/12/18 18:41:14;;;;;;;5.15;4.07;;;;;;;-3.73;100.00;99570.16;15273817;19;20347;-54
2022/12/18 18:46:39;;;;;;;5.30;4.60;;;;;;;-3.72;100.00;99568.38;15291247;19;20070;-51
2022/12/18 18:52:11;;;;;;;4.97;4.13;;;;;;;-3.74;100.00;99560.50;15286668;19;20101;-52
2022/12/18 18:57:38;;;;;;;7.22;4.50;;;;;;;-3.74;100.00;99549.09;15300201;19;20058;-54
2022/12/18 19:03:03;;;;;;;5.78;4.60;;;;;;;-3.75;100.00;99537.72;15311388;19;20084;-53
2022/12/18 19:08:29;;;;;;;6.38;4.90;;;;;;;-3.74;100.00;99534.19;15299824;19;20022;-52
2022/12/18 19:13:59;;;;;;;5.50;4.60;;;;;;;-3.73;100.00;99527.13;15293902;19;20050;-52
2022/12/18 19:19:26;;;;;;;5.53;4.15;;;;;;;-3.70;100.00;99510.41;15292423;19;20026;-53
2022/12/18 19:24:50;;;;;;;4.88;4.00;;;;;;;-3.70;100.00;99495.44;15290775;19;20089;-53
2022/12/18 19:30:18;;;;;;;5.30;3.97;;;;;;;-3.62;100.00;99490.81;15286603;19;20022;-56
2022/12/18 19:35:42;;;;;;;4.43;3.67;;;;;;;-3.53;100.00;99492.31;15289049;19;20026;-52
2022/12/18 19:41:07;;;;;;;5.78;3.88;;;;;;;-3.49;100.00;99490.44;15281619;19;20025;-50
2022/12/18 19:46:35;;;;;;;4.72;3.83;;;;;;;-3.47;100.00;99484.19;15280961;19;20022;-55
2022/12/18 19:52:01;;;;;;;5.68;4.20;;;;;;;-3.42;100.00;99479.66;15284599;19;20103;-55
2022/12/18 19:57:25;;;;;;;4.25;3.78;;;;;;;-3.37;100.00;99476.03;15286504;19;20181;-53
2022/12/18 20:02:52;;;;;;;4.47;3.50;;;;;;;-3.36;100.00;99470.72;15286914;19;20094;-55
2022/12/18 20:08:32;;;;;;;3.92;3.15;;;;;;;-3.31;100.00;99475.84;15283278;19;20014;-51
2022/12/18 20:14:05;;;;;;;4.03;3.40;;;;;;;-3.21;100.00;99487.81;15280759;19;20024;-50
2022/12/18 20:19:32;;;;;;;4.57;3.80;;;;;;;-3.16;100.00;99479.75;15257807;19;20531;-52
2022/12/18 20:24:57;;;;;;;4.28;3.75;;;;;;;-3.12;100.00;99481.41;15283536;19;20042;-55
2022/12/18 20:30:22;;;;;;;4.35;3.78;;;;;;;-3.04;100.00;99481.16;15280123;19;20070;-54
2022/12/18 20:35:49;;;;;;;7.05;4.43;;;;;;;-3.00;100.00;99470.47;15284431;19;20025;-53
2022/12/18 20:41:17;;;;;;;4.90;3.85;;;;;;;-2.99;100.00;99471.31;15280508;19;20018;-51
2022/12/18 20:46:42;;;;;;;6.03;4.35;;;;;;;-2.97;100.00;99470.38;15278077;19;20018;-51
2022/12/18 20:52:09;;;;;;;4.70;3.90;;;;;;;-2.97;100.00;99469.50;15280193;19;20011;-59
2022/12/18 20:57:35;;;;;;;4.63;4.07;;;;;;;-2.97;100.00;99482.69;15282714;19;20014;-55
2022/12/18 21:02:59;;;;;;;4.82;4.15;;;;;;;-2.94;100.00;99482.59;15283562;19;20026;-54
2022/12/18 21:08:26;;;;;;;5.03;4.13;;;;;;;-2.95;100.00;99473.81;15283492;19;20018;-52
2022/12/18 21:13:51;;;;;;;3.97;3.58;;;;;;;-2.95;100.00;99483.50;15284140;19;20025;-54
2022/12/18 21:19:18;;;;;;;6.55;4.35;;;;;;;-2.96;100.00;99477.38;15271854;19;20024;-57
2022/12/18 21:24:45;;;;;;;4.68;4.00;;;;;;;-2.96;100.00;99461.56;15283003;19;20476;-51
2022/12/18 21:30:11;;;;;;;4.50;4.10;;;;;;;-2.98;100.00;99442.28;15279785;19;20011;-51
2022/12/18 21:35:35;;;;;;;5.13;4.03;;;;;;;-3.00;100.00;99437.97;15283059;19;20671;-52
2022/12/18 21:41:06;;;;;;;6.10;4.70;;;;;;;-3.02;100.00;99443.28;15289648;19;20745;-53
2022/12/18 21:46:31;;;;;;;5.28;4.47;;;;;;;-3.00;100.00;99445.88;15296889;19;20074;-53
2022/12/18 21:51:58;;;;;;;4.80;4.18;;;;;;;-2.99;100.00;99435.28;15283646;19;20412;-53
2022/12/18 21:57:26;;;;;;;6.45;4.30;;;;;;;-3.01;100.00;99437.09;15295540;19;20057;-54
2022/12/18 22:02:51;;;;;;;5.30;4.50;;;;;;;-3.03;100.00;99454.72;15295093;19;20480;-54
2022/12/18 22:08:35;;;;;;;5.70;4.63;;;;;;;-3.06;100.00;99424.97;15294129;19;20047;-51
2022/12/18 22:14:03;;;;;;;5.05;4.47;;;;;;;-3.06;100.00;99411.78;15295584;19;20639;-51
2022/12/18 22:19:28;;;;;;;5.25;4.75;;;;;;;-3.07;100.00;99420.63;15293760;19;20762;-52
2022/12/18 22:25:00;;;;;;;5.57;4.65;;;;;;;-3.09;100.00;99431.22;15285096;19;20018;-53
2022/12/18 22:30:27;;;;;;;5.68;4.60;;;;;;;-3.07;100.00;99410.06;15290426;19;20090;-51
2022/12/18 22:35:52;;;;;;;6.47;4.63;;;;;;;-3.07;100.00;99418.84;15294717;19;20683;-51
2022/12/18 22:41:16;;;;;;;5.68;4.43;;;;;;;-3.01;100.00;99413.38;15290128;19;20090;-53
2022/12/18 22:46:47;;;;;;;5.40;4.38;;;;;;;-3.04;100.00;99417.88;15291490;19;20025;-53
2022/12/18 22:52:30;;;;;;;5.35;4.50;;;;;;;-3.05;100.00;99414.38;15290520;19;20474;-51
2022/12/18 22:57:55;;;;;;;5.75;4.65;;;;;;;-3.02;100.00;99418.69;15281427;19;20025;-53
2022/12/18 23:03:22;;;;;;;5.60;4.10;;;;;;;-2.98;100.00;99396.56;15292183;19;20020;-56
2022/12/18 23:08:47;;;;;;;5.10;4.43;;;;;;;-2.93;100.00;99392.03;15290833;19;20716;-56
2022/12/18 23:14:12;;;;;;;6.00;4.57;;;;;;;-2.94;100.00;99379.75;15293983;19;20031;-53
2022/12/18 23:19:43;;;;;;;4.70;4.20;;;;;;;-2.96;100.00;99363.09;15291130;19;20078;-52
2022/12/18 23:25:07;;;;;;;6.53;5.13;;;;;;;-2.95;100.00;99362.19;15292161;19;20015;-52
2022/12/18 23:30:33;;;;;;;7.55;4.80;;;;;;;-3.00;100.00;99358.88;15276123;19;20024;-53
2022/12/18 23:36:01;;;;;;;6.65;4.93;;;;;;;-3.04;100.00;99358.09;15290332;19;20022;-52
2022/12/18 23:41:28;;;;;;;6.07;5.03;;;;;;;-3.04;100.00;99347.56;15286270;19;20025;-54
2022/12/18 23:46:53;;;;;;;6.47;5.03;;;;;;;-3.07;100.00;99334.50;15289252;19;20023;-54
2022/12/18 23:52:27;;;;;;;6.22;5.28;;;;;;;-3.08;100.00;99310.81;15286780;19;20411;-51
2022/12/18 23:57:55;;;;;;;6.47;4.80;;;;;;;-3.11;100.00;99315.25;15284612;19;20043;-51
